Time;durP1;ratioP1;P1;durP2;ratioP2;P2;SDS_P1;SDS_P2;PMS_P1;PMS_P2;Temp;Humidity;BMP_temperature;BMP_pressure;BME280_temperature;BME280_humidity;BME280_pressure;Samples;Min_cycle;Max_cycle;Signal;HPM_P1;HPM_P2
2023/01/28 00:02:05;;;;;;;10.57;5.83;;;;;;;1.90;100.00;102809.13;5049098;28;20028;-87
2023/01/28 00:04:31;;;;;;;11.90;6.73;;;;;;;1.85;100.00;102801.63;5050411;28;20275;-88
2023/01/28 00:06:56;;;;;;;12.60;7.17;;;;;;;1.87;100.00;102806.78;5049408;28;20039;-87
2023/01/28 00:09:21;;;;;;;9.65;5.88;;;;;;;1.89;100.00;102810.91;5049525;28;20040;-87
2023/01/28 00:11:48;;;;;;;10.03;5.63;;;;;;;1.84;100.00;102807.06;5049896;28;20020;-87
2023/01/28 00:14:13;;;;;;;11.55;6.60;;;;;;;1.77;100.00;102801.56;5030174;28;20036;-87
2023/01/28 00:16:39;;;;;;;11.57;6.73;;;;;;;1.82;100.00;102812.50;5052822;28;20021;-87
2023/01/28 00:19:04;;;;;;;12.17;7.00;;;;;;;1.75;100.00;102800.88;5053932;28;20021;-87
2023/01/28 00:21:31;;;;;;;12.20;7.03;;;;;;;1.71;100.00;102802.13;5052804;28;20388;-87
2023/01/28 00:23:56;;;;;;;11.48;6.82;;;;;;;1.81;100.00;102816.13;5053088;28;20029;-87
2023/01/28 00:26:24;;;;;;;12.27;7.33;;;;;;;1.74;100.00;102810.59;5051659;28;20538;-87
2023/01/28 00:28:50;;;;;;;12.93;7.55;;;;;;;1.73;100.00;102811.59;5053148;28;20055;-88
2023/01/28 00:31:17;;;;;;;13.18;7.40;;;;;;;1.74;100.00;102815.88;5053021;28;20040;-87
2023/01/28 00:33:44;;;;;;;12.77;7.47;;;;;;;1.73;100.00;102819.53;5052991;28;20429;-87
2023/01/28 00:36:12;;;;;;;12.43;7.40;;;;;;;1.70;100.00;102818.97;5052385;28;20482;-88
2023/01/28 00:38:37;;;;;;;12.60;7.13;;;;;;;1.75;100.00;102822.81;5053282;28;20042;-87
2023/01/28 00:41:06;;;;;;;15.07;7.77;;;;;;;1.75;100.00;102828.13;5051203;28;20771;-88
2023/01/28 00:43:32;;;;;;;13.50;6.80;;;;;;;1.74;100.00;102820.34;5034737;28;20072;-88
2023/01/28 00:45:57;;;;;;;12.77;7.23;;;;;;;1.70;100.00;102819.81;5053466;28;20488;-87
2023/01/28 00:48:22;;;;;;;14.40;7.23;;;;;;;1.73;100.00;102829.25;5052776;28;20108;-88
2023/01/28 00:50:48;;;;;;;13.20;7.37;;;;;;;1.71;100.00;102826.78;5048617;28;20021;-86
2023/01/28 00:55:48;;;;;;;12.70;6.95;;;;;;;1.69;100.00;102822.59;5832139;22;20678;-86
2023/01/28 00:58:13;;;;;;;12.97;7.57;;;;;;;1.69;100.00;102826.09;5052822;28;20029;-86
2023/01/28 01:00:40;;;;;;;13.97;8.07;;;;;;;1.70;100.00;102832.19;5063317;28;20315;-86
2023/01/28 01:03:05;;;;;;;12.93;7.25;;;;;;;1.66;100.00;102826.38;5066594;28;20024;-87
2023/01/28 01:05:36;;;;;;;13.07;6.93;;;;;;;1.53;100.00;102805.59;5053382;28;20516;-87
2023/01/28 01:08:01;;;;;;;15.02;7.90;;;;;;;1.66;100.00;102840.41;5065707;28;20033;-86
2023/01/28 01:10:27;;;;;;;12.60;7.27;;;;;;;1.70;100.00;102834.84;5063110;28;20382;-86
2023/01/28 01:12:52;;;;;;;13.50;7.73;;;;;;;1.65;100.00;102828.19;5052915;28;20060;-87
2023/01/28 01:15:19;;;;;;;13.57;7.65;;;;;;;1.65;100.00;102828.19;5052839;28;20377;-86
2023/01/28 01:17:48;;;;;;;11.77;7.13;;;;;;;1.60;100.00;102830.47;5052432;28;20032;-86
2023/01/28 01:20:19;;;;;;;12.60;7.40;;;;;;;1.62;100.00;102820.56;5049562;28;20029;-86
2023/01/28 01:22:45;;;;;;;12.20;7.68;;;;;;;1.61;100.00;102833.91;5051653;28;20052;-86
2023/01/28 01:25:16;;;;;;;11.90;7.53;;;;;;;1.54;100.00;102832.88;5052309;28;20094;-86
2023/01/28 01:27:42;;;;;;;13.30;7.78;;;;;;;1.57;100.00;102825.47;5050491;28;20108;-86
2023/01/28 01:30:10;;;;;;;12.70;7.40;;;;;;;1.56;100.00;102826.44;5050893;28;20021;-87
2023/01/28 01:32:35;;;;;;;13.57;7.70;;;;;;;1.53;100.00;102818.81;5051382;28;20112;-87
2023/01/28 01:35:02;;;;;;;13.00;7.35;;;;;;;1.57;100.00;102828.09;5052087;28;20387;-88
2023/01/28 01:37:28;;;;;;;13.67;7.53;;;;;;;1.56;100.00;102823.81;5051311;28;20025;-88
2023/01/28 01:39:53;;;;;;;13.43;7.87;;;;;;;1.54;100.00;102809.09;5051492;28;20393;-88
2023/01/28 01:42:19;;;;;;;12.37;7.47;;;;;;;1.58;100.00;102828.91;5050289;28;20103;-88
2023/01/28 01:44:59;;;;;;;12.05;7.63;;;;;;;1.59;100.00;102834.06;5050228;28;20017;-88
2023/01/28 01:47:48;;;;;;;11.50;7.40;;;;;;;1.51;100.00;102820.75;5047816;28;20044;-87
2023/01/28 01:50:13;;;;;;;11.05;6.85;;;;;;;1.59;100.00;102834.06;5031942;28;20132;-88
2023/01/28 01:52:39;;;;;;;14.33;7.83;;;;;;;1.50;100.00;102829.66;5031766;28;20116;-87
2023/01/28 01:55:11;;;;;;;13.13;7.33;;;;;;;1.57;100.00;102829.91;5031791;28;20033;-88
2023/01/28 01:57:37;;;;;;;15.00;8.27;;;;;;;1.43;100.00;102818.03;5037647;28;20295;-87
2023/01/28 02:00:06;;;;;;;13.10;7.63;;;;;;;1.57;100.00;102837.84;5051666;28;20439;-87
2023/01/28 02:02:50;;;;;;;12.73;7.57;;;;;;;1.49;100.00;102825.34;5051884;28;20025;-87
2023/01/28 02:05:18;;;;;;;12.90;7.38;;;;;;;1.54;100.00;102838.97;5051235;28;20084;-87
2023/01/28 02:07:45;;;;;;;13.60;7.45;;;;;;;1.54;100.00;102836.31;5049488;28;20033;-88
2023/01/28 02:10:12;;;;;;;14.20;8.40;;;;;;;1.48;100.00;102824.53;5051160;28;20017;-87
2023/01/28 02:12:52;;;;;;;14.20;7.73;;;;;;;1.52;100.00;102833.00;5052007;28;20341;-88
2023/01/28 02:15:23;;;;;;;13.73;7.93;;;;;;;1.48;100.00;102842.19;5052865;28;20029;-88
2023/01/28 02:17:50;;;;;;;16.05;8.88;;;;;;;1.46;100.00;102836.25;5059079;28;20033;-88
2023/01/28 02:20:23;;;;;;;13.85;7.63;;;;;;;1.46;100.00;102844.19;5070519;28;20118;-87
2023/01/28 02:23:30;;;;;;;14.52;8.00;;;;;;;1.40;100.00;102834.19;5070113;28;20059;-87
2023/01/28 02:26:17;;;;;;;14.82;8.15;;;;;;;1.43;100.00;102841.81;5068753;28;20033;-87
2023/01/28 02:28:52;;;;;;;13.93;7.53;;;;;;;1.32;100.00;102822.53;5063510;28;20051;-87
2023/01/28 02:31:51;;;;;;;13.80;7.67;;;;;;;1.43;100.00;102833.91;5072412;28;20846;-87
2023/01/28 02:34:25;;;;;;;13.93;7.43;;;;;;;1.44;100.00;102835.56;5045771;28;20452;-87
2023/01/28 02:36:58;;;;;;;14.88;7.82;;;;;;;1.38;100.00;102825.56;5064717;28;20084;-87
2023/01/28 02:39:33;;;;;;;14.32;8.13;;;;;;;1.36;100.00;102818.63;5062106;28;20021;-87
2023/01/28 02:42:05;;;;;;;14.85;7.10;;;;;;;1.34;100.00;102820.56;5050300;28;20035;-87
2023/01/28 02:44:31;;;;;;;13.38;7.82;;;;;;;1.39;100.00;102838.63;5051631;28;20111;-88
2023/01/28 02:49:43;;;;;;;15.00;8.30;;;;;;;1.32;100.00;102825.16;5034475;28;20460;-87
2023/01/28 02:52:17;;;;;;;14.73;8.07;;;;;;;1.38;100.00;102839.59;5031444;28;20087;-87
2023/01/28 02:55:25;;;;;;;14.10;8.03;;;;;;;1.39;100.00;102843.91;5031735;28;20609;-88
2023/01/28 02:58:02;;;;;;;15.13;7.80;;;;;;;1.33;100.00;102834.75;5003564;28;20303;-88
2023/01/28 03:00:54;;;;;;;15.55;8.88;;;;;;;1.34;100.00;102839.06;5050817;28;20027;-87
2023/01/28 03:03:26;;;;;;;14.65;7.97;;;;;;;1.38;100.00;102838.78;5050979;28;20033;-87
2023/01/28 03:06:07;;;;;;;15.30;8.55;;;;;;;1.35;100.00;102843.38;5050803;28;20033;-87
2023/01/28 03:36:54;;;;;;;11.80;6.43;;;;;;;1.15;100.00;102850.56;5050354;28;20086;-87
2023/01/28 03:39:26;;;;;;;12.18;6.80;;;;;;;1.20;100.00;102858.03;5029273;28;20036;-87
2023/01/28 03:42:13;;;;;;;10.60;6.35;;;;;;;1.13;100.00;102839.31;5049971;28;20029;-87
2023/01/28 03:44:54;;;;;;;11.05;6.53;;;;;;;1.18;100.00;102855.56;5050868;28;20021;-87
2023/01/28 03:47:43;;;;;;;10.57;6.23;;;;;;;1.15;100.00;102849.72;5048997;28;20063;-87
2023/01/28 03:50:09;;;;;;;16.77;6.10;;;;;;;1.12;100.00;102842.94;5041708;28;20314;-87
2023/01/28 03:52:35;;;;;;;11.82;6.28;;;;;;;1.21;100.00;102849.97;5054534;28;20051;-89
2023/01/28 03:55:02;;;;;;;10.23;6.00;;;;;;;1.14;100.00;102848.03;5053325;28;20439;-87
2023/01/28 03:57:30;;;;;;;11.82;6.82;;;;;;;1.13;100.00;102843.75;5050139;28;20112;-88
2023/01/28 03:59:55;;;;;;;12.23;6.60;;;;;;;1.17;100.00;102856.53;5056742;28;20044;-87
2023/01/28 04:02:22;;;;;;;10.03;5.90;;;;;;;1.10;100.00;102844.03;5060724;28;20025;-88
2023/01/28 04:04:49;;;;;;;9.32;6.00;;;;;;;1.14;100.00;102863.91;5050736;28;20071;-87
2023/01/28 04:07:14;;;;;;;9.03;5.57;;;;;;;1.16;100.00;102861.94;5074211;28;20302;-87
2023/01/28 04:09:40;;;;;;;10.70;6.22;;;;;;;1.14;100.00;102869.19;5058719;28;20162;-87
2023/01/28 04:12:08;;;;;;;10.88;6.38;;;;;;;1.14;100.00;102877.09;5027576;28;20038;-87
2023/01/28 04:14:34;;;;;;;9.18;6.18;;;;;;;1.09;100.00;102871.44;5052593;28;20644;-88
2023/01/28 04:16:59;;;;;;;12.20;7.07;;;;;;;1.12;100.00;102879.03;5052802;28;20033;-87
2023/01/28 04:24:35;;;;;;;11.68;7.25;;;;;;;1.08;100.00;102878.50;5580904;22;20398;-87
2023/01/28 04:27:00;;;;;;;11.93;7.33;;;;;;;1.08;100.00;102875.06;5033145;28;20095;-87
2023/01/28 04:29:26;;;;;;;11.60;7.20;;;;;;;0.96;100.00;102869.94;5035646;28;20021;-87
2023/01/28 04:31:51;;;;;;;13.63;7.38;;;;;;;1.02;100.00;102877.28;5034392;28;20354;-87
2023/01/28 04:34:19;;;;;;;12.73;7.57;;;;;;;0.96;100.00;102864.66;5032785;28;20535;-87
2023/01/28 04:36:45;;;;;;;12.35;7.15;;;;;;;0.96;100.00;102869.94;5033813;28;20021;-87
2023/01/28 04:39:11;;;;;;;12.57;6.93;;;;;;;0.95;100.00;102872.72;5031155;28;20370;-87
2023/01/28 04:41:36;;;;;;;13.38;7.63;;;;;;;0.84;100.00;102849.97;5032554;28;20146;-87
2023/01/28 04:44:02;;;;;;;14.40;8.23;;;;;;;0.91;100.00;102866.91;5033512;28;20144;-87
2023/01/28 04:46:27;;;;;;;12.23;7.33;;;;;;;0.90;100.00;102866.06;5033927;28;20029;-87
2023/01/28 04:48:53;;;;;;;13.50;7.23;;;;;;;0.87;100.00;102854.97;5031494;28;20052;-88
2023/01/28 04:51:19;;;;;;;13.40;7.88;;;;;;;0.89;100.00;102864.38;5030432;28;20033;-86
2023/01/28 04:53:44;;;;;;;15.30;8.60;;;;;;;0.88;100.00;102868.00;5029661;28;21045;-87
2023/01/28 04:56:10;;;;;;;13.57;7.75;;;;;;;0.86;100.00;102864.66;5029152;28;20033;-86
2023/01/28 04:58:36;;;;;;;14.77;8.03;;;;;;;0.84;100.00;102865.78;5015782;28;20029;-86
2023/01/28 05:01:02;;;;;;;14.90;7.97;;;;;;;0.87;100.00;102871.63;5013457;28;20045;-86
2023/01/28 05:03:28;;;;;;;14.87;7.70;;;;;;;0.84;100.00;102873.72;5018469;28;20026;-85
2023/01/28 05:05:53;;;;;;;14.45;7.55;;;;;;;0.80;100.00;102869.69;5036786;28;20025;-86
2023/01/28 05:08:19;;;;;;;12.30;7.57;;;;;;;0.85;100.00;102881.47;5046937;28;20465;-86
2023/01/28 05:10:45;;;;;;;14.30;7.80;;;;;;;0.84;100.00;102879.00;5043161;28;20092;-85
2023/01/28 05:13:11;;;;;;;14.07;7.85;;;;;;;0.85;100.00;102885.94;5037649;28;20022;-85
2023/01/28 05:15:36;;;;;;;14.50;8.07;;;;;;;0.85;100.00;102872.75;5031755;28;20026;-85
2023/01/28 05:18:01;;;;;;;14.27;7.37;;;;;;;0.84;100.00;102871.06;5032906;28;20418;-90
2023/01/28 05:20:27;;;;;;;13.90;7.73;;;;;;;0.74;100.00;102871.91;5034696;28;20292;-89
2023/01/28 05:22:52;;;;;;;13.40;7.67;;;;;;;0.77;100.00;102885.81;5033689;28;20401;-91
2023/01/28 05:25:18;;;;;;;13.93;7.67;;;;;;;0.76;100.00;102879.72;5029758;28;20392;-92
2023/01/28 05:27:48;;;;;;;14.23;7.72;;;;;;;0.82;100.00;102878.31;5035485;28;20029;-91
2023/01/28 05:30:14;;;;;;;12.83;7.20;;;;;;;0.77;100.00;102875.25;5054356;28;20024;-92
2023/01/28 05:32:39;;;;;;;13.20;7.63;;;;;;;0.76;100.00;102871.78;5034283;28;20384;-90
2023/01/28 05:35:05;;;;;;;13.17;7.77;;;;;;;0.74;100.00;102871.91;5036466;28;20036;-89
2023/01/28 05:37:30;;;;;;;14.00;7.85;;;;;;;0.72;100.00;102865.13;5051034;28;20085;-92
2023/01/28 05:39:55;;;;;;;15.30;8.40;;;;;;;0.74;100.00;102871.91;5029544;28;20031;-92
2023/01/28 05:42:21;;;;;;;12.97;7.40;;;;;;;0.63;100.00;102850.97;5034554;28;20025;-93
2023/01/28 05:44:46;;;;;;;17.53;7.70;;;;;;;0.72;100.00;102873.03;5035034;28;20075;-92
2023/01/28 05:47:12;;;;;;;13.65;7.93;;;;;;;0.72;100.00;102878.31;5033555;28;20411;-93
2023/01/28 05:49:37;;;;;;;12.90;7.13;;;;;;;0.71;100.00;102877.50;5032555;28;20021;-90
2023/01/28 05:52:03;;;;;;;13.13;7.03;;;;;;;0.67;100.00;102867.34;5030840;28;20084;-91
2023/01/28 05:54:28;;;;;;;12.05;7.22;;;;;;;0.63;100.00;102866.81;5031635;28;20030;-90
2023/01/28 05:56:54;;;;;;;11.27;6.57;;;;;;;0.49;100.00;102846.94;5030885;28;20245;-92
2023/01/28 05:59:19;;;;;;;12.03;6.70;;;;;;;0.62;100.00;102862.50;5032359;28;20021;-91
2023/01/28 06:01:44;;;;;;;10.37;6.47;;;;;;;0.66;100.00;102879.72;5030740;28;20076;-92
2023/01/28 06:04:10;;;;;;;7.57;5.17;;;;;;;0.65;100.00;102883.34;5026518;28;20046;-92
2023/01/28 06:06:35;;;;;;;9.68;5.50;;;;;;;0.64;100.00;102889.59;5032001;28;20492;-92
2023/01/28 06:09:00;;;;;;;10.57;6.60;;;;;;;0.53;100.00;102868.63;5030947;28;20049;-92
2023/01/28 06:11:26;;;;;;;9.93;6.17;;;;;;;0.51;100.00;102862.66;5029715;28;20037;-92
2023/01/28 06:13:51;;;;;;;11.60;6.60;;;;;;;0.62;100.00;102888.88;5030991;28;20079;-93
2023/01/28 06:16:17;;;;;;;12.63;6.32;;;;;;;0.59;100.00;102878.59;5030919;28;20042;-94
2023/01/28 06:18:43;;;;;;;10.67;6.17;;;;;;;0.38;100.00;102858.47;5030734;28;20044;-94
2023/01/28 06:21:09;;;;;;;11.65;6.32;;;;;;;0.45;100.00;102864.06;5030646;28;20493;-93
2023/01/28 06:23:34;;;;;;;9.97;6.13;;;;;;;0.45;100.00;102864.88;4995162;28;1107802;-93
2023/01/28 06:25:59;;;;;;;9.90;6.47;;;;;;;0.54;99.88;102881.66;5028690;28;20025;-91
2023/01/28 06:28:25;;;;;;;9.97;6.03;;;;;;;0.56;100.00;102890.28;5023151;28;20053;-91
2023/01/28 06:30:51;;;;;;;9.53;5.97;;;;;;;0.56;100.00;102884.16;5016662;28;20057;-92
2023/01/28 06:33:21;;;;;;;9.60;5.63;;;;;;;0.61;99.31;102892.50;5029157;28;20838;-94
2023/01/28 06:35:47;;;;;;;11.15;6.05;;;;;;;0.56;99.45;102890.28;5027961;28;20029;-91
2023/01/28 06:38:13;;;;;;;11.85;6.30;;;;;;;0.38;97.48;102861.13;5030318;28;20219;-92
2023/01/28 06:40:38;;;;;;;9.73;6.07;;;;;;;0.58;98.78;102903.31;5026131;28;20462;-92
2023/01/28 06:43:05;;;;;;;11.13;6.57;;;;;;;0.58;98.27;102892.78;5024001;28;20021;-91
2023/01/28 06:45:31;;;;;;;9.68;5.85;;;;;;;0.58;97.76;102898.03;5029644;28;20032;-92
2023/01/28 06:47:57;;;;;;;11.00;6.15;;;;;;;0.49;96.97;102894.44;5031727;28;20049;-91
2023/01/28 06:50:22;;;;;;;11.50;6.93;;;;;;;0.55;97.50;102906.22;5030766;28;20059;-93
2023/01/28 06:52:47;;;;;;;11.97;6.00;;;;;;;0.40;98.09;102880.28;5033747;28;20023;-91
2023/01/28 06:55:13;;;;;;;12.85;6.82;;;;;;;0.49;97.83;102898.91;5040828;28;20116;-92
2023/01/28 06:57:39;;;;;;;12.33;7.07;;;;;;;0.48;97.98;102897.22;5042906;28;20148;-92
2023/01/28 07:00:09;;;;;;;12.30;7.10;;;;;;;0.52;98.18;102901.25;5051372;28;20496;-92
2023/01/28 07:02:35;;;;;;;10.27;5.97;;;;;;;0.44;98.53;102886.94;5040240;28;20025;-92
2023/01/28 07:05:01;;;;;;;12.10;7.00;;;;;;;0.53;98.43;102909.03;5040214;28;20292;-92
2023/01/28 07:07:26;;;;;;;11.32;6.97;;;;;;;0.52;98.71;102909.19;5035550;28;20052;-94
2023/01/28 07:09:51;;;;;;;11.77;7.03;;;;;;;0.36;98.02;102883.34;5044117;28;20564;-93
2023/01/28 07:12:17;;;;;;;13.10;7.30;;;;;;;0.38;98.76;102884.84;5034294;28;20017;-91
2023/01/28 07:14:42;;;;;;;12.00;6.93;;;;;;;0.47;98.76;102906.13;5032689;28;20048;-91
2023/01/28 07:17:10;;;;;;;12.47;6.90;;;;;;;0.50;96.81;102911.13;5043759;28;20307;-91
2023/01/28 07:19:36;;;;;;;11.30;7.07;;;;;;;0.44;97.92;102913.34;5036391;28;20065;-93
2023/01/28 07:22:02;;;;;;;12.83;7.10;;;;;;;0.38;99.04;102899.88;5037341;28;20017;-90
2023/01/28 07:24:28;;;;;;;11.02;6.70;;;;;;;0.50;98.55;102929.59;5035961;28;20037;-90
2023/01/28 07:26:53;;;;;;;12.10;6.87;;;;;;;0.45;97.65;102920.28;5036803;28;20032;-90
2023/01/28 07:29:19;;;;;;;11.67;6.53;;;;;;;0.49;97.35;102933.19;5037807;28;20312;-91
2023/01/28 07:31:45;;;;;;;12.60;6.93;;;;;;;0.48;97.35;102928.88;5034342;28;20037;-93
2023/01/28 07:34:11;;;;;;;11.60;6.80;;;;;;;0.48;97.64;102944.72;5028051;28;20037;-91
2023/01/28 07:36:36;;;;;;;11.73;6.73;;;;;;;0.44;96.83;102941.53;5031276;28;20029;-89
2023/01/28 07:39:01;;;;;;;13.57;7.43;;;;;;;0.37;96.74;102927.22;5031028;28;20477;-91
2023/01/28 07:41:28;;;;;;;11.65;6.63;;;;;;;0.44;95.54;102939.72;5032520;28;20026;-92
2023/01/28 07:50:37;;;;;;;10.90;5.93;;;;;;;0.41;95.52;102934.72;5151150;23;20251;-90
2023/01/28 07:53:05;;;;;;;10.98;6.57;;;;;;;0.47;93.78;102946.50;5072215;28;20017;-90
2023/01/28 07:55:31;;;;;;;11.73;6.40;;;;;;;0.43;93.73;102948.59;5068569;28;20049;-91
2023/01/28 07:57:58;;;;;;;12.80;6.90;;;;;;;0.46;94.28;102947.47;5051885;28;20079;-89
2023/01/28 08:00:26;;;;;;;13.70;6.27;;;;;;;0.50;94.55;102961.25;5050480;28;20079;-92
2023/01/28 08:02:56;;;;;;;13.87;7.10;;;;;;;0.50;94.66;102953.34;5054688;28;20286;-91
2023/01/28 08:05:21;;;;;;;15.07;7.32;;;;;;;0.50;95.19;102955.97;5051230;28;20032;-92
2023/01/28 08:07:49;;;;;;;14.43;8.07;;;;;;;0.44;93.63;102950.25;5052103;28;20025;-89
2023/01/28 08:10:17;;;;;;;12.77;7.07;;;;;;;0.47;92.33;102948.31;5049978;28;20056;-90
2023/01/28 08:13:03;;;;;;;11.13;6.70;;;;;;;0.54;93.31;102947.63;5046939;28;20279;-90
2023/01/28 08:15:29;;;;;;;13.23;7.18;;;;;;;0.48;92.10;102944.72;5029191;28;20496;-90
2023/01/28 08:17:58;;;;;;;10.45;6.32;;;;;;;0.56;91.57;102971.22;5039126;28;20044;-89
2023/01/28 08:20:25;;;;;;;10.02;6.07;;;;;;;0.58;91.96;102977.22;5053648;28;20047;-91
2023/01/28 08:22:50;;;;;;;15.85;7.85;;;;;;;0.57;90.89;102970.25;5047832;28;20029;-90
2023/01/28 08:25:16;;;;;;;12.83;7.23;;;;;;;0.62;90.83;102989.16;5049452;28;20476;-90
2023/01/28 08:27:43;;;;;;;10.87;6.37;;;;;;;0.68;91.77;102991.25;5061885;28;20013;-89
2023/01/28 08:30:09;;;;;;;12.02;7.10;;;;;;;0.75;91.73;102984.44;5070194;28;20074;-91
2023/01/28 08:32:35;;;;;;;11.63;6.85;;;;;;;0.75;91.17;102986.25;5053498;28;20025;-89
2023/01/28 08:35:00;;;;;;;12.45;7.28;;;;;;;0.79;91.17;102985.00;5061996;28;20032;-91
2023/01/28 08:37:26;;;;;;;10.37;6.13;;;;;;;0.83;91.15;102983.72;5070726;28;20041;-91
2023/01/28 08:39:51;;;;;;;12.13;6.80;;;;;;;0.82;91.40;102984.69;5059381;28;20388;-90
2023/01/28 08:42:17;;;;;;;11.00;6.70;;;;;;;0.87;91.52;102977.22;5054895;28;20029;-91
2023/01/28 08:44:46;;;;;;;13.40;7.30;;;;;;;1.05;91.37;103001.09;5052936;28;20448;-91
2023/01/28 08:47:26;;;;;;;13.27;7.93;;;;;;;0.88;90.97;102960.41;5020554;28;20049;-90
2023/01/28 08:50:01;;;;;;;12.60;6.93;;;;;;;1.26;90.63;103004.53;5052788;28;20033;-91
2023/01/28 08:52:37;;;;;;;11.70;6.72;;;;;;;1.35;90.90;103003.72;5054670;28;20103;-92
2023/01/28 08:55:02;;;;;;;12.15;6.80;;;;;;;1.44;89.84;103013.41;5052186;28;20538;-92
2023/01/28 08:57:28;;;;;;;10.20;6.50;;;;;;;1.29;90.71;102980.50;5054713;28;20037;-92
2023/01/28 08:59:53;;;;;;;11.63;6.97;;;;;;;1.39;89.58;103001.59;5054663;28;20518;-91
2023/01/28 09:02:18;;;;;;;12.63;7.33;;;;;;;1.45;88.48;103027.47;5052487;28;20071;-92
2023/01/28 09:04:44;;;;;;;11.40;6.43;;;;;;;1.28;89.53;103000.78;5043102;28;20045;-91
2023/01/28 09:07:10;;;;;;;11.35;6.43;;;;;;;1.30;88.46;102998.00;5025625;28;20104;-92
2023/01/28 09:09:35;;;;;;;16.13;6.57;;;;;;;1.47;90.65;103009.63;5054092;28;20082;-92
2023/01/28 09:12:00;;;;;;;11.33;6.57;;;;;;;1.50;90.55;103015.47;5055131;28;20376;-91
2023/01/28 09:14:26;;;;;;;13.07;6.70;;;;;;;1.56;88.97;103023.78;5055731;28;20029;-93
2023/01/28 09:16:54;;;;;;;11.77;6.97;;;;;;;1.52;89.65;103004.75;5055500;28;20037;-93
2023/01/28 09:19:21;;;;;;;13.27;7.07;;;;;;;1.53;89.65;103014.34;5049692;28;20048;-90
2023/01/28 09:21:46;;;;;;;12.07;7.37;;;;;;;1.27;88.24;102988.56;5046893;28;20045;-88
2023/01/28 09:24:13;;;;;;;11.77;6.83;;;;;;;1.50;87.80;103036.63;5051554;28;20957;-92
2023/01/28 09:27:10;;;;;;;13.43;7.03;;;;;;;1.47;89.51;103034.25;5049861;28;20052;-92
2023/01/28 09:29:36;;;;;;;12.43;6.93;;;;;;;1.20;90.15;103000.66;5033247;28;20116;-92
2023/01/28 09:32:02;;;;;;;11.98;6.80;;;;;;;1.35;91.05;103027.47;5025303;28;20048;-90
2023/01/28 09:34:35;;;;;;;11.35;6.90;;;;;;;1.16;90.58;103007.19;5121173;22;20096;-93
2023/01/28 09:37:07;;;;;;;11.70;7.13;;;;;;;0.99;90.13;102988.47;5041386;28;20045;-96
2023/01/28 09:39:52;;;;;;;13.75;7.45;;;;;;;1.40;91.32;103042.91;5041798;28;20029;-94
2023/01/28 09:42:50;;;;;;;14.00;7.03;;;;;;;1.43;90.50;103039.97;5053530;28;20024;-89
2023/01/28 09:45:24;;;;;;;11.67;7.13;;;;;;;1.32;89.34;103047.06;5051350;28;20087;-88
2023/01/28 09:47:55;;;;;;;11.43;7.15;;;;;;;1.25;90.10;103048.63;5045739;28;20028;-90
2023/01/28 09:50:32;;;;;;;16.30;8.52;;;;;;;1.26;91.40;103034.44;5053666;28;20029;-92
2023/01/28 09:53:11;;;;;;;12.48;8.02;;;;;;;1.43;90.91;103050.56;5052470;28;20029;-89
2023/01/28 09:55:39;;;;;;;13.13;7.38;;;;;;;1.55;89.89;103040.66;5057856;28;20029;-89
2023/01/28 09:58:13;;;;;;;12.88;8.30;;;;;;;1.54;90.18;103057.50;5070279;28;20037;-89
2023/01/28 10:00:59;;;;;;;13.17;7.93;;;;;;;1.53;89.54;103058.47;5054456;28;20018;-88
2023/01/28 10:03:35;;;;;;;14.15;7.32;;;;;;;1.52;90.15;103052.31;5049022;28;20036;-88
2023/01/28 10:06:16;;;;;;;12.95;7.88;;;;;;;1.50;89.27;103063.06;5046359;28;20400;-89
2023/01/28 10:09:01;;;;;;;12.95;7.63;;;;;;;1.53;89.58;103061.91;5055144;28;20048;-89
2023/01/28 10:11:27;;;;;;;10.52;7.88;;;;;;;1.47;88.01;103068.63;5054246;28;20048;-89
2023/01/28 10:14:20;;;;;;;13.13;8.20;;;;;;;1.35;88.24;103065.28;5057438;28;20068;-89
2023/01/28 10:16:54;;;;;;;12.50;8.27;;;;;;;1.18;88.50;103042.22;5055411;28;20540;-89
2023/01/28 10:19:42;;;;;;;13.50;7.72;;;;;;;1.25;89.25;103058.34;5057910;28;20032;-90
2023/01/28 10:22:29;;;;;;;13.37;8.20;;;;;;;1.39;89.76;103075.59;5046801;28;20029;-88
2023/01/28 10:25:05;;;;;;;12.40;8.00;;;;;;;1.33;88.77;103066.41;5059788;28;20287;-89
2023/01/28 10:27:33;;;;;;;14.68;8.48;;;;;;;1.33;87.95;103075.16;5056077;28;20052;-87
2023/01/28 10:30:18;;;;;;;12.82;7.95;;;;;;;1.20;87.81;103049.03;5061004;28;20033;-90
2023/01/28 10:33:12;;;;;;;12.80;7.90;;;;;;;1.39;88.84;103070.28;5057744;28;20504;-91
2023/01/28 10:35:42;;;;;;;13.75;7.72;;;;;;;1.31;88.93;103041.94;5029206;28;20040;-91
2023/01/28 10:38:13;;;;;;;13.07;7.90;;;;;;;1.45;89.60;103065.28;5046343;28;20032;-90
2023/01/28 10:40:47;;;;;;;13.18;7.18;;;;;;;1.42;89.35;103048.88;5028006;28;20052;-91
2023/01/28 10:43:23;;;;;;;10.40;6.87;;;;;;;1.59;88.67;103066.66;5065347;28;20025;-90
2023/01/28 10:46:09;;;;;;;10.57;7.25;;;;;;;1.59;86.91;103069.28;5042247;28;20025;-94
2023/01/28 10:48:43;;;;;;;10.73;6.55;;;;;;;1.49;86.43;103065.81;5058075;28;20484;-92
2023/01/28 10:51:08;;;;;;;11.10;6.88;;;;;;;1.48;86.10;103061.50;5056971;28;20033;-93
2023/01/28 10:53:49;;;;;;;11.43;7.33;;;;;;;1.56;86.28;103053.72;5052656;28;20025;-91
2023/01/28 10:56:30;;;;;;;9.98;6.00;;;;;;;1.53;85.90;103055.81;5055359;28;20496;-92
2023/01/28 10:58:59;;;;;;;11.00;6.93;;;;;;;1.60;86.08;103065.69;5054061;28;20044;-90
2023/01/28 11:01:37;;;;;;;10.25;6.43;;;;;;;1.58;85.54;103072.91;5054299;28;20020;-90
2023/01/28 11:04:03;;;;;;;9.80;6.50;;;;;;;1.54;85.76;103058.31;5057346;28;20021;-91
2023/01/28 11:06:28;;;;;;;11.63;6.53;;;;;;;1.42;84.81;103048.88;5039996;28;20366;-91
2023/01/28 11:08:55;;;;;;;12.23;7.60;;;;;;;1.48;86.14;103064.16;5057845;28;20083;-92
2023/01/28 11:11:25;;;;;;;13.85;7.75;;;;;;;1.32;87.22;103033.03;5054673;28;20025;-91
2023/01/28 11:13:53;;;;;;;10.82;7.05;;;;;;;1.48;86.29;103064.16;5047807;28;20497;-89
2023/01/28 11:22:31;;;;;;;10.63;6.20;;;;;;;1.09;86.84;103003.47;5920893;22;20602;-90
2023/01/28 11:24:58;;;;;;;15.93;6.80;;;;;;;1.28;87.69;103008.69;5071335;28;20291;-90
2023/01/28 11:27:29;;;;;;;11.98;7.35;;;;;;;1.66;87.10;103041.28;5053665;28;20038;-89
2023/01/28 11:30:03;;;;;;;10.30;6.78;;;;;;;1.72;86.66;103029.34;5048619;28;20029;-89
2023/01/28 11:32:29;;;;;;;12.25;6.95;;;;;;;1.91;87.40;103025.78;5052255;28;20025;-90
2023/01/28 11:35:27;;;;;;;11.38;6.55;;;;;;;2.07;87.12;103021.66;5056753;28;20031;-90
2023/01/28 11:37:53;;;;;;;9.15;5.13;;;;;;;2.27;85.68;103027.69;5049783;28;20017;-88
2023/01/28 11:40:23;;;;;;;12.80;6.67;;;;;;;2.34;84.62;103025.28;5049579;28;20120;-92
2023/01/28 11:42:56;;;;;;;9.80;6.15;;;;;;;2.39;83.18;103030.94;5052149;28;20025;-90
2023/01/28 11:45:45;;;;;;;11.02;6.43;;;;;;;2.36;84.88;103012.75;5036860;28;20029;-92
2023/01/28 11:48:36;;;;;;;10.25;6.78;;;;;;;2.53;84.17;103019.88;5042765;28;20033;-92
2023/01/28 11:51:42;;;;;;;11.90;6.60;;;;;;;2.56;82.66;103008.16;5050964;28;20055;-93
2023/01/28 11:54:38;;;;;;;11.57;6.50;;;;;;;2.51;83.33;102997.16;5054422;28;20306;-94
2023/01/28 12:00:38;;;;;;;12.82;7.32;;;;;;;2.70;81.32;102969.72;5053017;28;20066;-92
2023/01/28 12:03:56;;;;;;;10.88;6.97;;;;;;;2.65;82.04;102961.41;5046120;28;20036;-92
2023/01/28 12:06:51;;;;;;;11.18;6.75;;;;;;;2.47;83.59;102927.00;5037308;28;20044;-92
2023/01/28 12:09:34;;;;;;;9.80;6.30;;;;;;;2.24;82.30;102878.00;5036889;28;20041;-90
2023/01/28 12:12:18;;;;;;;9.50;6.28;;;;;;;2.65;84.55;102932.28;5028262;28;20095;-94
2023/01/28 12:15:09;;;;;;;10.37;6.23;;;;;;;2.87;83.80;102931.81;5043697;28;20056;-94
2023/01/28 12:17:53;;;;;;;9.47;6.13;;;;;;;2.94;83.15;102931.16;5038496;28;20311;-95
2023/01/28 12:20:45;;;;;;;12.50;7.07;;;;;;;2.84;82.71;102920.66;5059324;28;20452;-95
2023/01/28 12:23:37;;;;;;;9.57;6.10;;;;;;;2.88;82.63;102930.81;5038468;28;20558;-94
2023/01/28 12:29:51;;;;;;;11.93;7.10;;;;;;;3.02;81.14;102947.94;5057569;28;20048;-95
2023/01/28 12:33:00;;;;;;;10.15;6.45;;;;;;;3.06;81.24;102952.94;5058195;28;20033;-95
2023/01/28 12:41:24;;;;;;;9.25;6.10;;;;;;;2.67;82.36;102932.97;5043100;22;20045;-94
2023/01/28 12:44:09;;;;;;;8.50;5.13;;;;;;;2.71;80.82;102945.75;5055004;28;20507;-94